Time;durP1;ratioP1;P1;durP2;ratioP2;P2;SDS_P1;SDS_P2;PMS_P1;PMS_P2;Temp;Humidity;BMP_temperature;BMP_pressure;BME280_temperature;BME280_humidity;BME280_pressure;Samples;Min_cycle;Max_cycle;Signal;HPM_P1;HPM_P2
2022/07/07 00:00:14;;;;;;;1.17;1.10;;;25.60;98.70;;;;;;5123699;28;20453;-65
2022/07/07 00:02:45;;;;;;;0.90;0.90;;;25.60;99.50;;;;;;5124047;28;20454;-66
2022/07/07 00:05:17;;;;;;;1.27;1.13;;;25.70;99.00;;;;;;5123509;28;20849;-66
2022/07/07 00:07:48;;;;;;;1.00;1.00;;;25.60;99.70;;;;;;5116150;28;20444;-65
2022/07/07 00:10:19;;;;;;;0.97;0.93;;;25.30;99.40;;;;;;5123530;28;20458;-65
2022/07/07 00:12:50;;;;;;;0.60;0.60;;;25.10;99.90;;;;;;5123995;28;20525;-65
2022/07/07 00:15:24;;;;;;;0.70;0.70;;;24.80;99.90;;;;;;5103205;28;20486;-65
2022/07/07 00:17:54;;;;;;;0.90;0.90;;;24.80;99.90;;;;;;5124202;27;20454;-66
2022/07/07 00:20:27;;;;;;;2.07;1.00;;;24.80;99.90;;;;;;5122800;28;20513;-65
2022/07/07 00:22:58;;;;;;;0.60;0.60;;;24.80;99.90;;;;;;5090451;28;20782;-66
2022/07/07 00:25:29;;;;;;;0.90;0.90;;;24.90;99.90;;;;;;5124010;28;20498;-65
2022/07/07 00:28:09;;;;;;;1.20;0.53;;;25.00;99.80;;;;;;5123982;28;20827;-65
2022/07/07 00:30:42;;;;;;;0.90;0.90;;;25.20;99.50;;;;;;5123002;28;20457;-65
2022/07/07 00:33:13;;;;;;;0.60;0.60;;;25.30;99.90;;;;;;5093424;28;20466;-65
2022/07/07 00:35:44;;;;;;;0.87;0.87;;;25.30;99.90;;;;;;5122727;28;20512;-65
2022/07/07 00:38:15;;;;;;;1.30;0.80;;;25.30;99.90;;;;;;5110439;28;20459;-66
2022/07/07 00:40:51;;;;;;;1.10;1.00;;;25.50;99.80;;;;;;5122870;28;20564;-65
2022/07/07 00:43:23;;;;;;;0.87;0.87;;;25.40;98.90;;;;;;5121197;28;20540;-65
2022/07/07 00:45:56;;;;;;;0.80;0.80;;;25.10;99.10;;;;;;5123247;28;20471;-65
2022/07/07 00:48:27;;;;;;;0.70;0.70;;;25.10;99.60;;;;;;5123597;28;20462;-65
2022/07/07 00:50:58;;;;;;;0.90;0.90;;;25.20;99.90;;;;;;5122095;28;20447;-66
2022/07/07 00:53:28;;;;;;;0.90;0.90;;;25.40;98.50;;;;;;5123092;28;20820;-65
2022/07/07 00:55:59;;;;;;;0.80;0.80;;;25.30;99.90;;;;;;5092848;28;20546;-66
2022/07/07 00:58:30;;;;;;;1.27;1.17;;;25.10;99.40;;;;;;5123442;28;20514;-65
2022/07/07 01:01:03;;;;;;;0.70;0.70;;;25.20;98.40;;;;;;5122773;28;20532;-65
2022/07/07 01:03:34;;;;;;;0.70;0.70;;;25.00;99.40;;;;;;5122603;28;20469;-65
2022/07/07 01:06:05;;;;;;;0.80;0.80;;;25.00;98.60;;;;;;5121925;28;20483;-65
2022/07/07 01:08:37;;;;;;;0.87;0.87;;;24.90;99.30;;;;;;5123455;28;20878;-65
2022/07/07 01:11:08;;;;;;;0.93;0.93;;;24.80;99.60;;;;;;5122822;28;20462;-65
2022/07/07 01:13:41;;;;;;;0.93;0.90;;;24.80;99.60;;;;;;5120292;28;20451;-65
2022/07/07 01:16:13;;;;;;;0.90;0.90;;;24.60;99.90;;;;;;5122596;28;20487;-65
2022/07/07 01:18:44;;;;;;;0.80;0.80;;;24.60;99.90;;;;;;5123249;28;20939;-65
2022/07/07 01:21:20;;;;;;;0.97;0.90;;;24.50;99.90;;;;;;5121371;28;20538;-65
2022/07/07 01:23:56;;;;;;;0.83;0.83;;;24.30;99.90;;;;;;5123206;28;20439;-65
2022/07/07 01:26:27;;;;;;;1.10;1.00;;;24.20;99.90;;;;;;5104152;28;20517;-65
2022/07/07 01:28:59;;;;;;;0.90;0.90;;;24.20;99.90;;;;;;5112964;28;20450;-65
2022/07/07 01:31:30;;;;;;;1.30;1.20;;;24.20;99.90;;;;;;5120817;28;20471;-65
2022/07/07 01:34:01;;;;;;;1.10;1.00;;;24.10;99.90;;;;;;5123194;28;20449;-65
2022/07/07 01:36:31;;;;;;;1.27;1.17;;;24.00;99.90;;;;;;5125792;28;20500;-65
2022/07/07 01:39:04;;;;;;;1.20;1.20;;;24.00;99.90;;;;;;5127158;28;20448;-66
2022/07/07 01:41:35;;;;;;;1.10;1.00;;;24.20;99.90;;;;;;5126819;28;20449;-65
2022/07/07 01:44:05;;;;;;;1.50;1.40;;;24.00;99.90;;;;;;5121828;28;20501;-65
2022/07/07 01:46:36;;;;;;;1.50;1.40;;;24.00;99.90;;;;;;5126327;28;20471;-66
2022/07/07 01:49:07;;;;;;;1.33;0.90;;;23.90;99.90;;;;;;5126963;28;20461;-64
2022/07/07 01:51:38;;;;;;;1.00;1.00;;;23.80;99.90;;;;;;5125607;28;20465;-64
2022/07/07 01:54:10;;;;;;;0.97;0.97;;;23.80;99.90;;;;;;5126771;28;20883;-65
2022/07/07 01:56:41;;;;;;;1.63;1.40;;;23.80;99.90;;;;;;5126705;28;20481;-64
2022/07/07 01:59:12;;;;;;;1.10;1.10;;;23.70;99.90;;;;;;5126890;28;20461;-64
2022/07/07 02:01:43;;;;;;;1.30;1.20;;;23.50;99.90;;;;;;5125942;28;20451;-64
2022/07/07 02:04:14;;;;;;;0.80;0.80;;;23.30;99.90;;;;;;5095850;28;20464;-65
2022/07/07 02:06:45;;;;;;;1.50;1.40;;;23.20;99.90;;;;;;5125575;28;20489;-64
2022/07/07 02:09:17;;;;;;;1.30;1.23;;;23.10;99.90;;;;;;5126638;28;20520;-65
2022/07/07 02:11:48;;;;;;;1.57;1.47;;;23.00;99.90;;;;;;5126451;28;20921;-64
2022/07/07 02:14:19;;;;;;;1.20;1.10;;;23.00;99.90;;;;;;5121789;28;20453;-64
2022/07/07 02:16:50;;;;;;;1.10;1.10;;;23.00;99.90;;;;;;5125130;28;20473;-64
2022/07/07 02:19:21;;;;;;;1.90;1.40;;;22.80;99.90;;;;;;5126648;28;20764;-64
2022/07/07 02:21:52;;;;;;;1.27;1.20;;;22.80;99.90;;;;;;5124797;28;20458;-64
2022/07/07 02:24:25;;;;;;;1.53;1.43;;;22.80;99.90;;;;;;5094408;28;20448;-64
2022/07/07 02:26:55;;;;;;;1.03;1.00;;;22.70;99.90;;;;;;5125325;28;20446;-64
2022/07/07 02:29:26;;;;;;;1.10;1.00;;;22.60;99.90;;;;;;5126320;28;20460;-64
2022/07/07 02:31:58;;;;;;;0.80;0.80;;;22.50;99.90;;;;;;5109783;27;20450;-65
2022/07/07 02:34:29;;;;;;;0.63;0.63;;;22.40;99.90;;;;;;5125896;28;20467;-64
2022/07/07 02:36:59;;;;;;;0.97;0.60;;;22.20;99.90;;;;;;5125113;28;20839;-64
2022/07/07 02:39:32;;;;;;;0.60;0.60;;;22.00;99.90;;;;;;5126317;28;20445;-66
2022/07/07 02:42:03;;;;;;;0.80;0.77;;;21.80;99.90;;;;;;5125362;28;20529;-63
2022/07/07 02:44:34;;;;;;;0.70;0.70;;;21.80;99.90;;;;;;5125926;28;20460;-64
2022/07/07 02:47:04;;;;;;;0.70;0.70;;;21.70;99.90;;;;;;5125140;28;20457;-64
2022/07/07 02:49:35;;;;;;;0.70;0.70;;;21.70;99.90;;;;;;5125707;28;20513;-64
2022/07/07 02:52:07;;;;;;;0.60;0.60;;;21.50;99.90;;;;;;5124557;28;20449;-64
2022/07/07 02:54:39;;;;;;;0.80;0.60;;;21.50;99.90;;;;;;5126158;27;20494;-63
2022/07/07 02:57:10;;;;;;;2.10;0.73;;;21.40;99.90;;;;;;5124864;28;20473;-64
2022/07/07 02:59:40;;;;;;;0.53;0.40;;;21.40;99.90;;;;;;5124866;28;20500;-64
2022/07/07 03:02:11;;;;;;;1.07;0.97;;;21.30;99.90;;;;;;5124938;27;20454;-66
2022/07/07 03:04:42;;;;;;;0.53;0.53;;;21.20;99.90;;;;;;5112341;28;20450;-64
2022/07/07 03:07:13;;;;;;;0.60;0.60;;;21.10;99.90;;;;;;5115810;28;20445;-63
2022/07/07 03:09:45;;;;;;;0.70;0.70;;;21.00;99.90;;;;;;5125601;28;20552;-64
2022/07/07 03:12:16;;;;;;;0.50;0.50;;;20.90;99.90;;;;;;5124611;28;20444;-64
2022/07/07 03:14:47;;;;;;;0.60;0.40;;;20.90;99.90;;;;;;5125023;28;20456;-63
2022/07/07 03:17:18;;;;;;;0.80;0.80;;;20.80;99.90;;;;;;5124721;28;20488;-64
2022/07/07 03:19:49;;;;;;;0.53;0.53;;;20.80;99.90;;;;;;5124737;28;20469;-63
2022/07/07 03:22:30;;;;;;;0.40;0.40;;;20.70;99.90;;;;;;5123817;28;20445;-65
2022/07/07 03:25:12;;;;;;;0.80;0.60;;;20.70;99.90;;;;;;5125196;28;20416;-65
2022/07/07 03:27:56;;;;;;;0.80;0.70;;;20.70;99.90;;;;;;5114180;28;20908;-65
2022/07/07 03:30:38;;;;;;;0.70;0.50;;;20.60;99.90;;;;;;5124461;28;20465;-65
2022/07/07 03:36:50;;;;;;;0.60;0.50;;;20.50;99.90;;;;;;5048569;28;20440;-64
2022/07/07 03:39:24;;;;;;;1.33;0.70;;;20.30;99.90;;;;;;5060860;28;20585;-65
2022/07/07 03:41:59;;;;;;;0.63;0.60;;;20.20;99.90;;;;;;5060572;28;20462;-64
2022/07/07 03:44:30;;;;;;;1.30;0.90;;;20.10;99.90;;;;;;5048421;28;20452;-65
2022/07/07 03:47:00;;;;;;;0.60;0.50;;;20.10;99.90;;;;;;5060807;28;20469;-64
2022/07/07 03:49:32;;;;;;;0.53;0.50;;;20.10;99.90;;;;;;5061321;28;20444;-65
2022/07/07 03:52:06;;;;;;;0.80;0.60;;;20.00;99.90;;;;;;5059775;28;20452;-65
2022/07/07 03:54:40;;;;;;;0.80;0.63;;;20.00;99.90;;;;;;5033368;28;20565;-65
2022/07/07 03:57:12;;;;;;;0.70;0.63;;;20.00;99.90;;;;;;5059647;28;20445;-65
2022/07/07 04:00:00;;;;;;;0.50;0.50;;;19.90;99.90;;;;;;5060731;28;20638;-64
2022/07/07 04:02:31;;;;;;;0.97;0.63;;;19.80;99.90;;;;;;5060858;28;20441;-65
2022/07/07 04:05:01;;;;;;;0.67;0.50;;;19.70;99.90;;;;;;5060397;28;20420;-65
2022/07/07 04:07:33;;;;;;;0.83;0.70;;;19.60;99.90;;;;;;5060231;28;20487;-65
2022/07/07 04:10:05;;;;;;;0.60;0.50;;;19.60;99.90;;;;;;5060575;28;20459;-65
2022/07/07 04:12:37;;;;;;;0.60;0.57;;;19.50;99.90;;;;;;5088748;28;20446;-64
2022/07/07 04:15:09;;;;;;;0.57;0.53;;;19.40;99.90;;;;;;5123535;28;20453;-65
2022/07/07 04:17:40;;;;;;;1.17;0.80;;;19.30;99.90;;;;;;5123140;28;20454;-64
2022/07/07 04:20:12;;;;;;;0.90;0.60;;;19.30;99.90;;;;;;5122430;28;20871;-64
2022/07/07 04:22:43;;;;;;;0.97;0.80;;;19.20;99.90;;;;;;5124088;28;20421;-64
2022/07/07 04:25:14;;;;;;;0.67;0.67;;;19.10;99.90;;;;;;5117655;28;20436;-64
2022/07/07 04:27:46;;;;;;;1.20;0.80;;;19.10;99.90;;;;;;5124038;28;20456;-64
2022/07/07 04:30:17;;;;;;;2.27;1.30;;;19.10;99.90;;;;;;5118975;28;20444;-65
2022/07/07 04:32:48;;;;;;;2.80;1.40;;;19.10;99.90;;;;;;5113406;28;20453;-65
2022/07/07 04:35:19;;;;;;;1.37;0.83;;;19.10;99.90;;;;;;5122316;28;20990;-65
2022/07/07 04:37:50;;;;;;;0.93;0.90;;;19.00;99.90;;;;;;5123649;28;20438;-64
2022/07/07 04:40:20;;;;;;;1.00;0.90;;;18.90;99.90;;;;;;5123168;28;20511;-65
2022/07/07 04:42:53;;;;;;;1.00;0.93;;;18.90;99.90;;;;;;5123330;28;20453;-64
2022/07/07 04:45:30;;;;;;;0.87;0.73;;;19.00;99.90;;;;;;5122802;28;20416;-64
2022/07/07 04:48:01;;;;;;;0.83;0.80;;;19.00;99.90;;;;;;5123446;28;20488;-64
2022/07/07 04:50:31;;;;;;;1.00;0.80;;;19.00;99.90;;;;;;5122008;28;20438;-65
2022/07/07 04:53:02;;;;;;;0.90;0.80;;;18.90;99.90;;;;;;5123315;28;20493;-65
2022/07/07 04:55:33;;;;;;;0.83;0.83;;;18.90;99.90;;;;;;5122518;28;20420;-64
2022/07/07 04:58:05;;;;;;;1.00;0.90;;;18.90;99.90;;;;;;5122816;28;20458;-64
2022/07/07 05:00:36;;;;;;;1.07;0.97;;;18.90;99.90;;;;;;5123029;28;20432;-65
2022/07/07 05:03:07;;;;;;;0.83;0.80;;;18.90;99.90;;;;;;5119321;28;20496;-64
2022/07/07 05:05:38;;;;;;;1.20;0.90;;;18.90;99.90;;;;;;5121706;28;20445;-65
2022/07/07 05:08:09;;;;;;;0.97;0.80;;;18.70;99.90;;;;;;5122694;28;20852;-64
2022/07/07 05:10:39;;;;;;;1.90;1.13;;;18.70;99.90;;;;;;5122227;28;20451;-64
2022/07/07 05:13:12;;;;;;;0.70;0.70;;;18.50;99.90;;;;;;5122715;28;20451;-64
2022/07/07 05:15:43;;;;;;;0.90;0.90;;;18.50;99.90;;;;;;5121891;28;20441;-64
2022/07/07 05:18:13;;;;;;;1.70;1.00;;;18.50;99.90;;;;;;5123042;28;20480;-65
2022/07/07 05:20:44;;;;;;;0.77;0.77;;;18.40;99.90;;;;;;5121980;28;20432;-64
2022/07/07 05:23:15;;;;;;;1.00;0.80;;;18.30;99.90;;;;;;5123091;28;20445;-65
2022/07/07 05:25:46;;;;;;;1.20;1.10;;;18.40;99.90;;;;;;5122000;28;21020;-64
2022/07/07 05:28:19;;;;;;;1.10;1.00;;;18.40;99.90;;;;;;5123349;28;20515;-64
2022/07/07 05:30:50;;;;;;;1.57;0.97;;;18.40;99.90;;;;;;5115622;28;20446;-64
2022/07/07 05:33:21;;;;;;;1.30;1.17;;;18.30;99.90;;;;;;5115989;28;20502;-65
2022/07/07 05:35:52;;;;;;;2.60;1.20;;;18.30;99.90;;;;;;5121289;28;20441;-64
2022/07/07 05:38:30;;;;;;;1.20;0.80;;;18.40;99.90;;;;;;5123022;28;20466;-64
2022/07/07 05:41:01;;;;;;;0.83;0.73;;;18.30;99.90;;;;;;5122522;28;20431;-64
2022/07/07 05:43:33;;;;;;;1.07;1.03;;;18.30;99.90;;;;;;5112810;28;20499;-65
2022/07/07 05:46:04;;;;;;;1.03;0.93;;;18.30;99.90;;;;;;5114833;28;20456;-65
2022/07/07 05:48:35;;;;;;;1.20;0.87;;;18.30;99.90;;;;;;5109958;28;20573;-64
2022/07/07 05:51:06;;;;;;;1.63;1.37;;;18.30;99.90;;;;;;5122413;28;20428;-64
2022/07/07 05:53:37;;;;;;;0.97;0.87;;;18.30;99.90;;;;;;5118876;28;20488;-64
2022/07/07 05:56:08;;;;;;;1.30;1.20;;;18.30;99.90;;;;;;5120831;28;20456;-64
2022/07/07 05:58:41;;;;;;;3.07;1.27;;;18.20;99.90;;;;;;5089836;28;20910;-64
2022/07/07 06:01:13;;;;;;;1.40;1.13;;;18.10;99.90;;;;;;5111440;28;20481;-64
2022/07/07 06:03:44;;;;;;;2.83;1.00;;;18.00;99.90;;;;;;5122900;28;20438;-64
2022/07/07 06:06:15;;;;;;;1.50;1.40;;;18.00;99.90;;;;;;5121846;28;20416;-64
2022/07/07 06:08:45;;;;;;;2.50;1.30;;;17.90;99.90;;;;;;5097397;28;20424;-64
2022/07/07 06:11:16;;;;;;;1.33;1.23;;;17.80;99.90;;;;;;5122600;28;20447;-64
2022/07/07 06:13:55;;;;;;;2.00;1.50;;;17.80;99.90;;;;;;5122262;28;20461;-64
2022/07/07 06:19:11;;;;;;;1.70;1.60;;;17.80;99.90;;;;;;5122449;28;20484;-64
2022/07/07 06:21:43;;;;;;;1.70;1.60;;;17.80;99.90;;;;;;5125200;28;20426;-64
2022/07/07 06:24:14;;;;;;;2.13;1.67;;;17.80;99.90;;;;;;5126082;28;20412;-64
2022/07/07 06:26:45;;;;;;;1.03;0.93;;;17.80;99.90;;;;;;5125654;28;20428;-64
2022/07/07 06:29:17;;;;;;;1.47;1.37;;;17.80;99.90;;;;;;5125653;28;20456;-64
2022/07/07 06:31:48;;;;;;;2.03;1.83;;;17.80;99.90;;;;;;5125235;28;20457;-64
2022/07/07 06:34:19;;;;;;;2.03;1.87;;;17.80;99.90;;;;;;5090466;28;20842;-64
2022/07/07 06:36:50;;;;;;;1.73;1.60;;;17.80;99.90;;;;;;5105398;28;20449;-63
2022/07/07 06:39:20;;;;;;;1.87;1.47;;;17.70;99.90;;;;;;5126036;28;20526;-64
2022/07/07 06:41:51;;;;;;;2.07;1.87;;;17.70;99.90;;;;;;5125873;28;20535;-64
2022/07/07 06:44:24;;;;;;;1.73;1.57;;;17.60;99.90;;;;;;5125721;28;20449;-65
2022/07/07 06:46:54;;;;;;;2.37;2.20;;;17.60;99.90;;;;;;5125140;28;20506;-64
2022/07/07 06:49:25;;;;;;;2.07;1.93;;;17.60;99.90;;;;;;5125523;28;20514;-63
2022/07/07 06:51:57;;;;;;;1.80;1.50;;;17.50;99.90;;;;;;5124912;28;20408;-65
2022/07/07 06:54:28;;;;;;;2.17;2.00;;;17.50;99.90;;;;;;5125493;28;20459;-64
2022/07/07 06:56:58;;;;;;;2.10;1.90;;;17.40;99.90;;;;;;5121913;28;20569;-64
2022/07/07 06:59:31;;;;;;;1.83;1.73;;;17.40;99.90;;;;;;5125831;28;20489;-64
2022/07/07 07:02:03;;;;;;;1.90;1.70;;;17.40;99.90;;;;;;5125610;28;20453;-64
2022/07/07 07:04:34;;;;;;;1.63;1.53;;;17.40;99.90;;;;;;5123920;28;20475;-65
2022/07/07 07:07:06;;;;;;;2.27;1.77;;;17.30;99.90;;;;;;5124456;27;20445;-64
2022/07/07 07:09:37;;;;;;;2.13;1.63;;;17.30;99.90;;;;;;5125326;28;20428;-64
2022/07/07 07:12:09;;;;;;;1.70;1.60;;;17.20;99.90;;;;;;5124724;28;20532;-64
2022/07/07 07:14:42;;;;;;;2.30;2.10;;;17.20;99.90;;;;;;5125081;28;20438;-64
2022/07/07 07:17:13;;;;;;;1.40;1.30;;;17.10;99.90;;;;;;5124467;28;20768;-64
2022/07/07 07:19:44;;;;;;;2.57;2.27;;;17.10;99.90;;;;;;5124701;28;20492;-64
2022/07/07 07:22:14;;;;;;;1.80;1.50;;;17.10;99.90;;;;;;5124049;28;20424;-64
2022/07/07 07:24:45;;;;;;;1.60;1.50;;;17.10;99.90;;;;;;5124478;28;20421;-64
2022/07/07 07:27:16;;;;;;;1.70;1.60;;;17.00;99.90;;;;;;5124178;28;20464;-64
2022/07/07 07:29:49;;;;;;;1.70;1.60;;;16.90;99.90;;;;;;5124540;28;21013;-64
2022/07/07 07:32:26;;;;;;;1.90;1.30;;;16.90;99.90;;;;;;5116089;28;20537;-64
2022/07/07 07:34:57;;;;;;;1.80;1.70;;;16.90;99.90;;;;;;5124168;28;20449;-64
2022/07/07 07:37:27;;;;;;;1.43;1.33;;;16.90;99.90;;;;;;5124191;28;20525;-64
2022/07/07 07:39:58;;;;;;;2.90;1.70;;;16.90;99.90;;;;;;5124335;28;20584;-64
2022/07/07 07:42:29;;;;;;;1.97;1.80;;;16.90;99.90;;;;;;5124680;28;20477;-64
2022/07/07 07:45:14;;;;;;;1.50;1.40;;;16.90;99.90;;;;;;5092525;28;20447;-64
2022/07/07 07:47:46;;;;;;;1.60;1.50;;;16.90;99.90;;;;;;5124239;28;20460;-64
2022/07/07 07:50:19;;;;;;;2.27;2.10;;;16.90;99.90;;;;;;5123572;28;20453;-64
2022/07/07 07:52:50;;;;;;;3.00;2.70;;;16.90;99.90;;;;;;5124444;28;20561;-64
2022/07/07 07:55:22;;;;;;;7.43;5.60;;;16.90;99.90;;;;;;5124351;28;20556;-64
2022/07/07 07:57:54;;;;;;;8.90;7.77;;;16.90;99.90;;;;;;5123384;28;20471;-64
2022/07/07 08:00:26;;;;;;;8.47;7.27;;;16.90;99.90;;;;;;5123737;28;20520;-64
2022/07/07 08:02:57;;;;;;;5.20;4.70;;;16.90;99.90;;;;;;5116844;28;20447;-64
2022/07/07 08:05:30;;;;;;;5.17;4.57;;;16.90;99.90;;;;;;5102830;28;20475;-64
2022/07/07 08:08:02;;;;;;;4.50;3.20;;;16.90;99.90;;;;;;5104230;28;20413;-64
2022/07/07 08:10:33;;;;;;;2.50;2.30;;;16.90;99.90;;;;;;5108981;28;20401;-63
2022/07/07 08:13:04;;;;;;;2.57;2.10;;;16.90;99.90;;;;;;5124115;28;20434;-64
2022/07/07 08:15:37;;;;;;;2.20;2.03;;;16.80;99.90;;;;;;5123686;28;20435;-64
2022/07/07 08:18:08;;;;;;;2.10;2.00;;;16.80;99.90;;;;;;5123818;28;20527;-64
2022/07/07 08:20:39;;;;;;;2.00;1.80;;;16.80;99.90;;;;;;5122612;28;20499;-64
2022/07/07 08:23:10;;;;;;;2.10;1.83;;;16.80;99.90;;;;;;5120641;28;20967;-64
2022/07/07 08:25:41;;;;;;;1.50;1.40;;;16.80;99.90;;;;;;5123445;28;20460;-64
2022/07/07 08:28:11;;;;;;;2.50;2.30;;;16.80;99.90;;;;;;5123216;28;20511;-64
2022/07/07 08:30:44;;;;;;;3.03;1.63;;;16.80;99.90;;;;;;5115581;28;20461;-64
2022/07/07 08:33:15;;;;;;;1.73;1.60;;;16.80;99.90;;;;;;5123731;28;20971;-64
2022/07/07 08:35:45;;;;;;;1.70;1.60;;;16.70;99.90;;;;;;5121919;28;20437;-64
2022/07/07 08:38:16;;;;;;;1.97;1.70;;;16.70;99.90;;;;;;5123563;28;20442;-64
2022/07/07 08:40:47;;;;;;;1.70;1.60;;;16.70;99.90;;;;;;5122996;28;20564;-64
2022/07/07 08:43:18;;;;;;;2.97;1.90;;;16.60;99.90;;;;;;5123626;28;20473;-64
2022/07/07 08:45:51;;;;;;;1.60;1.50;;;16.60;99.90;;;;;;5123187;28;20454;-63
2022/07/07 08:48:23;;;;;;;1.93;1.77;;;16.60;99.90;;;;;;5123132;28;20444;-64
2022/07/07 08:50:55;;;;;;;1.73;1.60;;;16.60;99.90;;;;;;5122256;28;20474;-65
2022/07/07 08:53:27;;;;;;;1.80;1.70;;;16.70;99.90;;;;;;5123414;28;20487;-64
2022/07/07 08:56:06;;;;;;;2.23;1.67;;;16.70;99.90;;;;;;5121824;28;20506;-64
2022/07/07 08:58:40;;;;;;;2.27;2.17;;;16.70;99.90;;;;;;5122501;28;20532;-64
2022/07/07 09:01:32;;;;;;;3.00;2.23;;;16.80;99.90;;;;;;5122547;28;20459;-64
2022/07/07 09:04:04;;;;;;;2.13;1.93;;;16.90;99.90;;;;;;5123204;28;20450;-64
2022/07/07 09:06:35;;;;;;;1.67;1.57;;;16.90;99.90;;;;;;5121926;28;20835;-64
2022/07/07 09:09:06;;;;;;;2.17;1.97;;;16.90;99.90;;;;;;5122792;28;20412;-64
2022/07/07 09:11:37;;;;;;;3.40;2.40;;;16.90;99.90;;;;;;5122893;28;20414;-64
2022/07/07 09:14:14;;;;;;;3.23;2.30;;;16.80;99.90;;;;;;5122924;28;20921;-64
2022/07/07 09:16:49;;;;;;;2.87;2.40;;;16.80;99.90;;;;;;5090431;28;20525;-64
2022/07/07 09:19:21;;;;;;;3.17;2.47;;;16.70;99.90;;;;;;5122753;28;20507;-64
2022/07/07 09:21:52;;;;;;;2.37;2.00;;;16.70;99.90;;;;;;5121983;28;20489;-64
2022/07/07 09:24:23;;;;;;;3.20;1.97;;;16.70;99.90;;;;;;5123110;28;20445;-64
2022/07/07 09:26:55;;;;;;;2.80;2.40;;;16.60;99.90;;;;;;5122636;28;20446;-64
2022/07/07 09:29:27;;;;;;;3.37;2.30;;;16.60;99.90;;;;;;5122780;28;20547;-64
2022/07/07 09:32:01;;;;;;;3.00;2.70;;;16.60;99.90;;;;;;5122112;28;20424;-64
2022/07/07 09:34:33;;;;;;;2.27;2.07;;;16.60;99.90;;;;;;5120285;28;20464;-64
2022/07/07 09:39:57;;;;;;;2.80;2.20;;;16.40;99.90;;;;;;5122525;28;20424;-63
2022/07/07 09:42:40;;;;;;;2.37;1.80;;;16.40;99.90;;;;;;5122565;28;20505;-64
2022/07/07 09:45:13;;;;;;;3.03;1.97;;;16.50;99.90;;;;;;5122433;28;20500;-64
2022/07/07 09:47:46;;;;;;;2.70;2.20;;;16.40;99.90;;;;;;5122553;28;20420;-64
2022/07/07 09:50:17;;;;;;;3.30;2.70;;;16.40;99.90;;;;;;5121215;28;20563;-64
2022/07/07 09:52:49;;;;;;;2.33;1.93;;;16.30;99.90;;;;;;5121565;28;20452;-64
2022/07/07 09:55:20;;;;;;;4.73;2.03;;;16.30;99.90;;;;;;5123344;28;20456;-64
2022/07/07 09:57:51;;;;;;;3.90;2.17;;;16.20;99.90;;;;;;5121609;28;20485;-65
2022/07/07 10:00:21;;;;;;;3.23;2.93;;;16.20;99.90;;;;;;5126350;28;20528;-64
2022/07/07 10:02:55;;;;;;;2.33;2.03;;;16.20;99.90;;;;;;5126350;28;20420;-63
2022/07/07 10:05:26;;;;;;;2.40;2.00;;;16.20;99.90;;;;;;5125314;28;20428;-64
2022/07/07 10:07:59;;;;;;;4.63;3.33;;;16.30;99.90;;;;;;5126215;28;20794;-64
2022/07/07 10:10:31;;;;;;;3.73;2.60;;;16.20;99.90;;;;;;5125748;28;20450;-64
2022/07/07 10:13:03;;;;;;;3.37;2.27;;;16.20;99.90;;;;;;5126086;28;20430;-64
2022/07/07 10:15:35;;;;;;;3.57;2.90;;;16.30;99.90;;;;;;5126525;28;20984;-65
2022/07/07 10:18:10;;;;;;;4.20;2.53;;;16.20;99.90;;;;;;5125768;28;20942;-63
2022/07/07 10:20:41;;;;;;;3.17;2.70;;;16.20;99.90;;;;;;5103870;28;20432;-63
2022/07/07 10:23:12;;;;;;;4.53;3.23;;;16.20;99.90;;;;;;5125812;28;20441;-63
2022/07/07 10:25:43;;;;;;;3.40;2.87;;;16.20;99.90;;;;;;5125815;28;20445;-63
2022/07/07 10:28:14;;;;;;;3.90;2.60;;;16.20;99.90;;;;;;5125904;28;20540;-64
2022/07/07 10:30:45;;;;;;;4.43;2.87;;;16.20;99.90;;;;;;5125606;28;20442;-63
2022/07/07 10:33:20;;;;;;;4.10;2.50;;;16.30;99.90;;;;;;5113317;28;20459;-63
2022/07/07 10:35:55;;;;;;;5.37;2.93;;;16.30;99.90;;;;;;5124833;28;20467;-63
2022/07/07 10:38:26;;;;;;;2.70;2.50;;;16.30;99.90;;;;;;5093283;28;20430;-63
2022/07/07 10:40:58;;;;;;;3.00;2.60;;;16.30;99.90;;;;;;5125413;28;20525;-64
2022/07/07 10:43:33;;;;;;;3.80;2.87;;;16.40;99.90;;;;;;5124915;28;20445;-64
2022/07/07 10:46:11;;;;;;;3.87;3.00;;;16.40;99.90;;;;;;5118409;28;20469;-63
2022/07/07 10:48:48;;;;;;;3.33;2.33;;;16.50;99.90;;;;;;5125731;28;20442;-63
2022/07/07 10:51:21;;;;;;;3.93;2.57;;;16.50;99.90;;;;;;5116323;28;20456;-63
2022/07/07 10:54:00;;;;;;;4.83;2.83;;;16.50;99.90;;;;;;5125477;28;20482;-63
2022/07/07 10:57:09;;;;;;;3.60;3.27;;;16.50;99.90;;;;;;5092246;28;20517;-63
2022/07/07 11:00:18;;;;;;;3.03;2.50;;;16.50;99.90;;;;;;5124934;28;20947;-63
2022/07/07 11:02:52;;;;;;;2.50;2.30;;;16.50;99.90;;;;;;5122708;28;20452;-62
2022/07/07 11:05:33;;;;;;;3.47;2.53;;;16.60;99.90;;;;;;5118096;28;21308;-64
2022/07/07 11:08:12;;;;;;;2.60;2.03;;;16.60;99.90;;;;;;5123604;28;20464;-65
2022/07/07 11:10:56;;;;;;;4.10;3.30;;;16.60;99.90;;;;;;5095487;28;21776;-65
2022/07/07 11:13:35;;;;;;;3.30;2.70;;;16.70;99.90;;;;;;5124811;28;20450;-64
2022/07/07 11:16:20;;;;;;;4.60;2.70;;;16.70;99.90;;;;;;5125125;28;20438;-64
2022/07/07 11:18:56;;;;;;;2.87;2.40;;;16.70;99.90;;;;;;5094515;28;20932;-63
2022/07/07 11:21:41;;;;;;;6.10;3.13;;;16.70;99.90;;;;;;5123619;28;20590;-63
2022/07/07 11:24:20;;;;;;;3.30;2.60;;;16.60;99.90;;;;;;5117010;28;20488;-63
2022/07/07 11:26:59;;;;;;;2.40;2.20;;;16.60;99.90;;;;;;5093096;28;20797;-63
2022/07/07 11:29:31;;;;;;;3.30;2.40;;;16.60;99.90;;;;;;5124419;28;20446;-63
2022/07/07 11:32:04;;;;;;;3.47;2.57;;;16.60;99.90;;;;;;5123700;28;20488;-64
2022/07/07 11:34:43;;;;;;;3.63;3.13;;;16.60;99.90;;;;;;5123365;27;20438;-63
2022/07/07 11:37:25;;;;;;;3.70;2.67;;;16.50;99.90;;;;;;5123245;28;20420;-63
2022/07/07 11:39:57;;;;;;;2.87;2.50;;;16.50;99.90;;;;;;5124122;28;20450;-63
2022/07/07 11:42:37;;;;;;;3.63;2.80;;;16.40;99.90;;;;;;5123625;28;20978;-63
2022/07/07 11:45:20;;;;;;;4.47;3.53;;;16.40;99.90;;;;;;5124220;28;20510;-64
2022/07/07 11:47:52;;;;;;;3.90;3.40;;;16.40;99.90;;;;;;5124480;28;20451;-64
2022/07/07 11:50:23;;;;;;;3.60;2.60;;;16.40;99.90;;;;;;5122430;28;20441;-64
2022/07/07 11:52:57;;;;;;;3.70;2.87;;;16.40;99.90;;;;;;5124374;28;20493;-64
2022/07/07 11:55:28;;;;;;;3.13;2.83;;;16.40;99.90;;;;;;5124102;28;20478;-63
2022/07/07 11:58:01;;;;;;;3.77;2.93;;;16.40;99.90;;;;;;5124107;28;20440;-63
2022/07/07 12:00:33;;;;;;;2.90;2.60;;;16.50;99.90;;;;;;5091005;28;20552;-64
2022/07/07 12:03:07;;;;;;;3.73;2.87;;;16.50;99.90;;;;;;5119417;28;20500;-63
2022/07/07 12:05:43;;;;;;;3.67;2.90;;;16.50;99.90;;;;;;5115451;28;20434;-63
2022/07/07 12:08:19;;;;;;;3.70;3.00;;;16.60;99.90;;;;;;5123921;28;20628;-63
2022/07/07 12:10:53;;;;;;;4.70;3.40;;;16.60;99.90;;;;;;5122154;28;20441;-63
2022/07/07 12:13:27;;;;;;;3.27;2.80;;;16.70;99.90;;;;;;5122835;28;20447;-63
2022/07/07 12:16:03;;;;;;;4.83;3.37;;;16.70;99.90;;;;;;5123383;28;20831;-64
2022/07/07 12:18:38;;;;;;;3.47;2.83;;;16.70;99.90;;;;;;5122827;28;20428;-63
2022/07/07 12:21:11;;;;;;;3.90;2.90;;;16.70;99.90;;;;;;5122346;28;20465;-63
2022/07/07 12:23:46;;;;;;;3.30;2.33;;;16.80;99.90;;;;;;5107423;28;20440;-63
2022/07/07 12:26:20;;;;;;;3.37;2.30;;;16.70;99.90;;;;;;5123349;28;20436;-63
2022/07/07 12:28:51;;;;;;;3.37;2.77;;;16.70;99.90;;;;;;5123767;28;20450;-63
2022/07/07 12:31:23;;;;;;;3.00;2.17;;;16.70;99.90;;;;;;5122693;28;20409;-63
2022/07/07 12:34:11;;;;;;;3.73;2.77;;;16.70;99.90;;;;;;5122881;28;20450;-63
2022/07/07 12:36:43;;;;;;;5.30;3.20;;;16.80;99.90;;;;;;5122131;28;21206;-63
2022/07/07 12:39:22;;;;;;;3.20;2.37;;;16.80;99.90;;;;;;5122926;28;20464;-63
2022/07/07 12:41:55;;;;;;;3.10;2.43;;;16.80;99.90;;;;;;5122058;28;20423;-63
2022/07/07 12:44:32;;;;;;;4.37;3.20;;;16.90;99.90;;;;;;5123413;28;20770;-63
2022/07/07 12:47:30;;;;;;;4.90;3.13;;;16.90;99.90;;;;;;5123273;28;20408;-63
2022/07/07 12:50:00;;;;;;;3.37;3.07;;;16.80;99.90;;;;;;5122737;28;20453;-63
2022/07/07 12:52:31;;;;;;;3.60;2.70;;;16.80;99.90;;;;;;5120751;28;20531;-64
2022/07/07 12:55:11;;;;;;;4.43;3.60;;;16.90;99.90;;;;;;5122471;28;20450;-63
2022/07/07 12:57:44;;;;;;;3.57;2.23;;;16.90;99.90;;;;;;5122882;28;20445;-63
2022/07/07 13:00:26;;;;;;;4.23;2.60;;;17.00;99.90;;;;;;5122461;28;20453;-63
2022/07/07 13:02:56;;;;;;;4.00;3.20;;;17.00;99.90;;;;;;5123078;28;20556;-63
2022/07/07 13:05:28;;;;;;;3.30;2.30;;;17.10;99.90;;;;;;5112714;28;20425;-64
2022/07/07 13:07:58;;;;;;;4.13;3.17;;;17.20;99.90;;;;;;5122768;28;20798;-63
2022/07/07 13:10:31;;;;;;;6.00;3.57;;;17.10;99.90;;;;;;5122078;28;21295;-63
2022/07/07 13:13:02;;;;;;;3.77;3.37;;;17.20;99.90;;;;;;5122489;28;20430;-63
2022/07/07 13:15:33;;;;;;;4.53;2.70;;;17.20;99.90;;;;;;5114309;28;20533;-64
2022/07/07 13:18:04;;;;;;;4.30;2.60;;;17.30;99.90;;;;;;5122644;28;20915;-64
2022/07/07 13:20:35;;;;;;;5.00;3.50;;;17.30;99.90;;;;;;5121410;28;20541;-63
2022/07/07 13:23:06;;;;;;;3.83;3.53;;;17.30;99.90;;;;;;5122628;28;20540;-63
2022/07/07 13:25:38;;;;;;;4.20;2.97;;;17.40;99.90;;;;;;5122007;28;20420;-63